sensor_id;sensor_type;location;lat;lon;timestamp;temperature;humidity
4964;DHT22;2497;47.410;9.740;2023-08-31T00:00:13;13.70;99.90
4964;DHT22;2497;47.410;9.740;2023-08-31T00:02:41;13.80;99.90
4964;DHT22;2497;47.410;9.740;2023-08-31T00:05:08;13.70;99.90
4964;DHT22;2497;47.410;9.740;2023-08-31T00:07:37;13.70;99.90
4964;DHT22;2497;47.410;9.740;2023-08-31T00:10:05;13.80;99.90
4964;DHT22;2497;47.410;9.740;2023-08-31T00:12:35;13.70;99.90
4964;DHT22;2497;47.410;9.740;2023-08-31T00:15:04;13.70;99.90
4964;DHT22;2497;47.410;9.740;2023-08-31T00:17:31;13.70;99.90
4964;DHT22;2497;47.410;9.740;2023-08-31T00:19:58;13.70;99.90
4964;DHT22;2497;47.410;9.740;2023-08-31T00:22:25;13.70;99.90
4964;DHT22;2497;47.410;9.740;2023-08-31T00:24:54;13.70;99.90
4964;DHT22;2497;47.410;9.740;2023-08-31T00:27:21;13.70;99.90
4964;DHT22;2497;47.410;9.740;2023-08-31T00:29:48;13.70;99.90
4964;DHT22;2497;47.410;9.740;2023-08-31T00:32:16;13.70;99.90
4964;DHT22;2497;47.410;9.740;2023-08-31T00:34:44;13.70;99.90
4964;DHT22;2497;47.410;9.740;2023-08-31T00:37:11;13.60;99.90
4964;DHT22;2497;47.410;9.740;2023-08-31T00:39:38;13.60;99.90
4964;DHT22;2497;47.410;9.740;2023-08-31T00:42:07;13.60;99.90
4964;DHT22;2497;47.410;9.740;2023-08-31T00:44:36;13.70;99.90
4964;DHT22;2497;47.410;9.740;2023-08-31T00:47:03;13.60;99.90
4964;DHT22;2497;47.410;9.740;2023-08-31T00:49:30;13.60;99.90
4964;DHT22;2497;47.410;9.740;2023-08-31T00:51:58;13.70;99.90
4964;DHT22;2497;47.410;9.740;2023-08-31T00:54:25;13.70;99.90
4964;DHT22;2497;47.410;9.740;2023-08-31T00:56:53;13.80;99.90
4964;DHT22;2497;47.410;9.740;2023-08-31T00:59:22;13.80;99.90
4964;DHT22;2497;47.410;9.740;2023-08-31T01:01:54;13.70;99.90
4964;DHT22;2497;47.410;9.740;2023-08-31T01:04:29;13.70;99.90
4964;DHT22;2497;47.410;9.740;2023-08-31T01:07:02;13.60;99.90
4964;DHT22;2497;47.410;9.740;2023-08-31T01:09:36;13.60;99.90
4964;DHT22;2497;47.410;9.740;2023-08-31T01:12:09;13.60;99.90
4964;DHT22;2497;47.410;9.740;2023-08-31T01:14:42;13.60;99.90
4964;DHT22;2497;47.410;9.740;2023-08-31T01:17:12;13.60;99.90
4964;DHT22;2497;47.410;9.740;2023-08-31T01:19:48;13.70;99.90
4964;DHT22;2497;47.410;9.740;2023-08-31T01:22:21;13.80;99.90
4964;DHT22;2497;47.410;9.740;2023-08-31T01:24:53;13.70;99.90
4964;DHT22;2497;47.410;9.740;2023-08-31T01:27:21;13.70;99.90
4964;DHT22;2497;47.410;9.740;2023-08-31T01:29:48;13.80;99.90
4964;DHT22;2497;47.410;9.740;2023-08-31T01:32:15;13.80;99.90
4964;DHT22;2497;47.410;9.740;2023-08-31T01:34:42;13.80;99.90
4964;DHT22;2497;47.410;9.740;2023-08-31T01:37:12;13.90;99.90
4964;DHT22;2497;47.410;9.740;2023-08-31T01:39:46;13.90;99.90
4964;DHT22;2497;47.410;9.740;2023-08-31T01:42:17;14.00;99.90
4964;DHT22;2497;47.410;9.740;2023-08-31T01:44:45;14.00;99.90
4964;DHT22;2497;47.410;9.740;2023-08-31T01:47:15;13.90;99.90
4964;DHT22;2497;47.410;9.740;2023-08-31T01:49:44;13.90;99.90
4964;DHT22;2497;47.410;9.740;2023-08-31T01:52:12;13.90;99.90
4964;DHT22;2497;47.410;9.740;2023-08-31T01:54:39;13.90;99.90
4964;DHT22;2497;47.410;9.740;2023-08-31T01:57:06;13.80;99.90
4964;DHT22;2497;47.410;9.740;2023-08-31T01:59:34;13.80;99.90
4964;DHT22;2497;47.410;9.740;2023-08-31T02:02:02;13.90;99.90
4964;DHT22;2497;47.410;9.740;2023-08-31T02:04:29;13.90;99.90
4964;DHT22;2497;47.410;9.740;2023-08-31T02:06:56;13.90;99.90
4964;DHT22;2497;47.410;9.740;2023-08-31T02:09:24;13.80;99.90
4964;DHT22;2497;47.410;9.740;2023-08-31T02:11:51;13.80;99.90
4964;DHT22;2497;47.410;9.740;2023-08-31T02:14:18;13.80;99.90
4964;DHT22;2497;47.410;9.740;2023-08-31T02:16:47;13.80;99.90
4964;DHT22;2497;47.410;9.740;2023-08-31T02:19:14;13.80;99.90
4964;DHT22;2497;47.410;9.740;2023-08-31T02:21:41;13.70;99.90
4964;DHT22;2497;47.410;9.740;2023-08-31T02:24:08;13.70;99.90
4964;DHT22;2497;47.410;9.740;2023-08-31T02:26:35;13.70;99.90
4964;DHT22;2497;47.410;9.740;2023-08-31T02:29:03;13.70;99.90
4964;DHT22;2497;47.410;9.740;2023-08-31T02:31:30;13.70;99.90
4964;DHT22;2497;47.410;9.740;2023-08-31T02:33:59;13.70;99.90
4964;DHT22;2497;47.410;9.740;2023-08-31T02:36:26;13.70;99.90
4964;DHT22;2497;47.410;9.740;2023-08-31T02:38:53;13.70;99.90
4964;DHT22;2497;47.410;9.740;2023-08-31T02:41:20;13.70;99.90
4964;DHT22;2497;47.410;9.740;2023-08-31T02:43:50;13.70;99.90
4964;DHT22;2497;47.410;9.740;2023-08-31T02:46:18;13.70;99.90
4964;DHT22;2497;47.410;9.740;2023-08-31T02:48:46;13.70;99.90
4964;DHT22;2497;47.410;9.740;2023-08-31T02:51:15;13.80;99.90
4964;DHT22;2497;47.410;9.740;2023-08-31T02:53:42;13.80;99.90
4964;DHT22;2497;47.410;9.740;2023-08-31T02:56:09;13.90;99.90
4964;DHT22;2497;47.410;9.740;2023-08-31T02:58:36;13.80;99.90
4964;DHT22;2497;47.410;9.740;2023-08-31T03:01:07;13.80;99.90
4964;DHT22;2497;47.410;9.740;2023-08-31T03:03:36;13.80;99.90
4964;DHT22;2497;47.410;9.740;2023-08-31T03:06:04;13.80;99.90
4964;DHT22;2497;47.410;9.740;2023-08-31T03:08:33;13.70;99.90
4964;DHT22;2497;47.410;9.740;2023-08-31T03:11:01;13.70;99.90
4964;DHT22;2497;47.410;9.740;2023-08-31T03:13:28;13.70;99.90
4964;DHT22;2497;47.410;9.740;2023-08-31T03:15:55;13.70;99.90
4964;DHT22;2497;47.410;9.740;2023-08-31T03:18:23;13.70;99.90
4964;DHT22;2497;47.410;9.740;2023-08-31T03:20:50;13.70;99.90
4964;DHT22;2497;47.410;9.740;2023-08-31T03:23:17;13.80;99.90
4964;DHT22;2497;47.410;9.740;2023-08-31T03:25:46;13.70;99.90
4964;DHT22;2497;47.410;9.740;2023-08-31T03:28:13;13.70;99.90
4964;DHT22;2497;47.410;9.740;2023-08-31T03:30:40;13.60;99.90
4964;DHT22;2497;47.410;9.740;2023-08-31T03:33:10;13.60;99.90
4964;DHT22;2497;47.410;9.740;2023-08-31T03:35:40;13.70;99.90
4964;DHT22;2497;47.410;9.740;2023-08-31T03:38:07;13.70;99.90
4964;DHT22;2497;47.410;9.740;2023-08-31T03:40:35;13.70;99.90
4964;DHT22;2497;47.410;9.740;2023-08-31T03:43:03;13.70;99.90
4964;DHT22;2497;47.410;9.740;2023-08-31T03:45:30;13.60;99.90
4964;DHT22;2497;47.410;9.740;2023-08-31T03:47:58;13.70;99.90
4964;DHT22;2497;47.410;9.740;2023-08-31T03:50:25;13.60;99.90
4964;DHT22;2497;47.410;9.740;2023-08-31T03:52:52;13.60;99.90
4964;DHT22;2497;47.410;9.740;2023-08-31T03:55:19;13.60;99.90
4964;DHT22;2497;47.410;9.740;2023-08-31T03:57:46;13.60;99.90
4964;DHT22;2497;47.410;9.740;2023-08-31T04:00:15;13.70;99.90
4964;DHT22;2497;47.410;9.740;2023-08-31T04:02:43;13.70;99.90
4964;DHT22;2497;47.410;9.740;2023-08-31T04:05:12;13.60;99.90
4964;DHT22;2497;47.410;9.740;2023-08-31T04:07:50;13.60;99.90
4964;DHT22;2497;47.410;9.740;2023-08-31T04:10:27;13.50;99.90
4964;DHT22;2497;47.410;9.740;2023-08-31T04:12:55;13.60;99.90
4964;DHT22;2497;47.410;9.740;2023-08-31T04:15:23;13.50;99.90
4964;DHT22;2497;47.410;9.740;2023-08-31T04:17:51;13.60;99.90
4964;DHT22;2497;47.410;9.740;2023-08-31T04:20:18;13.60;99.90
4964;DHT22;2497;47.410;9.740;2023-08-31T04:23:05;13.60;99.90
4964;DHT22;2497;47.410;9.740;2023-08-31T04:25:35;13.60;99.90
4964;DHT22;2497;47.410;9.740;2023-08-31T04:28:04;13.60;99.90
4964;DHT22;2497;47.410;9.740;2023-08-31T04:30:32;13.60;99.90
4964;DHT22;2497;47.410;9.740;2023-08-31T04:33:00;13.60;99.90
4964;DHT22;2497;47.410;9.740;2023-08-31T04:35:42;13.60;99.90
4964;DHT22;2497;47.410;9.740;2023-08-31T04:38:15;13.60;99.90
4964;DHT22;2497;47.410;9.740;2023-08-31T04:40:43;13.50;99.90
4964;DHT22;2497;47.410;9.740;2023-08-31T04:43:13;13.50;99.90
4964;DHT22;2497;47.410;9.740;2023-08-31T04:45:45;13.40;99.90
4964;DHT22;2497;47.410;9.740;2023-08-31T04:48:15;13.40;99.90
4964;DHT22;2497;47.410;9.740;2023-08-31T04:50:46;13.30;99.90
4964;DHT22;2497;47.410;9.740;2023-08-31T04:53:13;13.30;99.90
4964;DHT22;2497;47.410;9.740;2023-08-31T04:55:40;13.30;99.90
4964;DHT22;2497;47.410;9.740;2023-08-31T04:58:07;13.40;99.90
4964;DHT22;2497;47.410;9.740;2023-08-31T05:00:34;13.40;99.90
4964;DHT22;2497;47.410;9.740;2023-08-31T05:03:06;13.50;99.90
4964;DHT22;2497;47.410;9.740;2023-08-31T05:05:33;13.50;99.90
4964;DHT22;2497;47.410;9.740;2023-08-31T05:08:00;13.50;99.90
4964;DHT22;2497;47.410;9.740;2023-08-31T05:10:27;13.60;99.90
4964;DHT22;2497;47.410;9.740;2023-08-31T05:12:54;13.60;99.90
4964;DHT22;2497;47.410;9.740;2023-08-31T05:15:21;13.70;99.90
4964;DHT22;2497;47.410;9.740;2023-08-31T05:17:51;13.70;99.90
4964;DHT22;2497;47.410;9.740;2023-08-31T05:20:20;13.60;99.90
4964;DHT22;2497;47.410;9.740;2023-08-31T05:22:49;13.60;99.90
4964;DHT22;2497;47.410;9.740;2023-08-31T05:25:16;13.60;99.90
4964;DHT22;2497;47.410;9.740;2023-08-31T05:27:43;13.60;99.90
4964;DHT22;2497;47.410;9.740;2023-08-31T05:30:10;13.70;99.90
4964;DHT22;2497;47.410;9.740;2023-08-31T05:32:37;13.70;99.90
4964;DHT22;2497;47.410;9.740;2023-08-31T05:35:05;13.70;99.90
4964;DHT22;2497;47.410;9.740;2023-08-31T05:37:34;13.70;99.90
4964;DHT22;2497;47.410;9.740;2023-08-31T05:40:02;13.80;99.90
4964;DHT22;2497;47.410;9.740;2023-08-31T05:42:35;13.80;99.90
4964;DHT22;2497;47.410;9.740;2023-08-31T05:45:02;13.70;99.90
4964;DHT22;2497;47.410;9.740;2023-08-31T05:47:29;13.80;99.90
4964;DHT22;2497;47.410;9.740;2023-08-31T05:49:57;13.80;99.90
4964;DHT22;2497;47.410;9.740;2023-08-31T05:52:24;13.90;99.90
4964;DHT22;2497;47.410;9.740;2023-08-31T05:54:53;13.90;99.90
4964;DHT22;2497;47.410;9.740;2023-08-31T05:57:20;13.90;99.90
4964;DHT22;2497;47.410;9.740;2023-08-31T05:59:47;13.90;99.90
4964;DHT22;2497;47.410;9.740;2023-08-31T06:02:14;14.00;99.90
4964;DHT22;2497;47.410;9.740;2023-08-31T06:04:42;14.10;99.90
4964;DHT22;2497;47.410;9.740;2023-08-31T06:07:09;14.20;99.90
4964;DHT22;2497;47.410;9.740;2023-08-31T06:09:36;14.30;99.90
4964;DHT22;2497;47.410;9.740;2023-08-31T06:12:06;14.20;99.90
4964;DHT22;2497;47.410;9.740;2023-08-31T06:14:33;14.30;99.90
4964;DHT22;2497;47.410;9.740;2023-08-31T06:17:03;14.40;99.90
4964;DHT22;2497;47.410;9.740;2023-08-31T06:19:30;14.40;99.90
4964;DHT22;2497;47.410;9.740;2023-08-31T06:21:57;14.50;99.90
4964;DHT22;2497;47.410;9.740;2023-08-31T06:24:24;14.60;99.90
4964;DHT22;2497;47.410;9.740;2023-08-31T06:26:51;14.70;99.90
4964;DHT22;2497;47.410;9.740;2023-08-31T06:29:22;14.60;99.90
4964;DHT22;2497;47.410;9.740;2023-08-31T06:31:49;14.70;99.90
4964;DHT22;2497;47.410;9.740;2023-08-31T06:34:16;14.70;99.90
4964;DHT22;2497;47.410;9.740;2023-08-31T06:36:43;14.60;99.90
4964;DHT22;2497;47.410;9.740;2023-08-31T06:39:10;14.60;99.90
4964;DHT22;2497;47.410;9.740;2023-08-31T06:41:37;14.70;99.90
4964;DHT22;2497;47.410;9.740;2023-08-31T06:44:04;14.70;99.90
4964;DHT22;2497;47.410;9.740;2023-08-31T06:46:33;14.60;99.90
4964;DHT22;2497;47.410;9.740;2023-08-31T06:49:03;14.70;99.90
4964;DHT22;2497;47.410;9.740;2023-08-31T06:51:31;14.70;99.90
4964;DHT22;2497;47.410;9.740;2023-08-31T06:53:58;14.60;99.90
4964;DHT22;2497;47.410;9.740;2023-08-31T06:56:31;14.50;99.90
4964;DHT22;2497;47.410;9.740;2023-08-31T06:58:59;14.50;99.90
4964;DHT22;2497;47.410;9.740;2023-08-31T07:01:26;14.50;99.90
4964;DHT22;2497;47.410;9.740;2023-08-31T07:03:55;14.40;99.90
4964;DHT22;2497;47.410;9.740;2023-08-31T07:06:22;14.40;99.90
4964;DHT22;2497;47.410;9.740;2023-08-31T07:08:49;14.40;99.90
4964;DHT22;2497;47.410;9.740;2023-08-31T07:11:17;14.50;99.90
4964;DHT22;2497;47.410;9.740;2023-08-31T07:13:44;14.50;99.90
4964;DHT22;2497;47.410;9.740;2023-08-31T07:16:11;14.40;99.90
4964;DHT22;2497;47.410;9.740;2023-08-31T07:18:38;14.30;99.90
4964;DHT22;2497;47.410;9.740;2023-08-31T07:21:07;14.30;99.90
4964;DHT22;2497;47.410;9.740;2023-08-31T07:23:37;14.30;99.90
4964;DHT22;2497;47.410;9.740;2023-08-31T07:26:04;14.20;99.90
4964;DHT22;2497;47.410;9.740;2023-08-31T07:28:31;14.30;99.90
4964;DHT22;2497;47.410;9.740;2023-08-31T07:31:02;14.40;99.90
4964;DHT22;2497;47.410;9.740;2023-08-31T07:33:30;14.60;99.90
4964;DHT22;2497;47.410;9.740;2023-08-31T07:35:58;14.70;99.90
4964;DHT22;2497;47.410;9.740;2023-08-31T07:38:27;14.70;99.90
4964;DHT22;2497;47.410;9.740;2023-08-31T07:40:54;14.70;99.90
4964;DHT22;2497;47.410;9.740;2023-08-31T07:43:21;14.70;99.90
4964;DHT22;2497;47.410;9.740;2023-08-31T07:45:49;14.80;99.90
4964;DHT22;2497;47.410;9.740;2023-08-31T07:48:16;14.90;99.90
4964;DHT22;2497;47.410;9.740;2023-08-31T07:50:43;14.90;99.90
4964;DHT22;2497;47.410;9.740;2023-08-31T07:53:11;14.90;99.90
4964;DHT22;2497;47.410;9.740;2023-08-31T07:55:39;14.90;99.90
4964;DHT22;2497;47.410;9.740;2023-08-31T07:58:06;14.90;99.90
4964;DHT22;2497;47.410;9.740;2023-08-31T08:00:33;14.90;99.90
4964;DHT22;2497;47.410;9.740;2023-08-31T08:03:00;14.90;99.90
4964;DHT22;2497;47.410;9.740;2023-08-31T08:05:27;14.90;99.90
4964;DHT22;2497;47.410;9.740;2023-08-31T08:07:54;14.90;99.90
4964;DHT22;2497;47.410;9.740;2023-08-31T08:10:21;14.90;99.90
4964;DHT22;2497;47.410;9.740;2023-08-31T08:12:50;14.80;99.90
4964;DHT22;2497;47.410;9.740;2023-08-31T08:15:17;14.90;99.90
4964;DHT22;2497;47.410;9.740;2023-08-31T08:17:44;14.90;99.90
4964;DHT22;2497;47.410;9.740;2023-08-31T08:20:12;14.80;99.90
4964;DHT22;2497;47.410;9.740;2023-08-31T08:22:39;14.90;99.90
4964;DHT22;2497;47.410;9.740;2023-08-31T08:25:06;14.90;99.90
4964;DHT22;2497;47.410;9.740;2023-08-31T08:27:34;15.00;99.90
4964;DHT22;2497;47.410;9.740;2023-08-31T08:30:04;15.00;99.90
4964;DHT22;2497;47.410;9.740;2023-08-31T08:32:33;15.10;99.90
4964;DHT22;2497;47.410;9.740;2023-08-31T08:35:00;15.10;99.90
4964;DHT22;2497;47.410;9.740;2023-08-31T08:37:28;15.20;99.90
4964;DHT22;2497;47.410;9.740;2023-08-31T08:39:57;15.20;99.90
4964;DHT22;2497;47.410;9.740;2023-08-31T08:42:25;15.20;99.90
4964;DHT22;2497;47.410;9.740;2023-08-31T08:44:52;15.30;99.90
4964;DHT22;2497;47.410;9.740;2023-08-31T08:47:21;15.30;99.90
4964;DHT22;2497;47.410;9.740;2023-08-31T08:49:48;15.20;99.90
4964;DHT22;2497;47.410;9.740;2023-08-31T08:52:15;15.20;99.90
4964;DHT22;2497;47.410;9.740;2023-08-31T08:54:43;15.20;99.90
4964;DHT22;2497;47.410;9.740;2023-08-31T08:57:11;15.30;99.90
4964;DHT22;2497;47.410;9.740;2023-08-31T08:59:38;15.30;99.90
4964;DHT22;2497;47.410;9.740;2023-08-31T09:02:06;15.30;99.90
4964;DHT22;2497;47.410;9.740;2023-08-31T09:04:36;15.30;99.90
4964;DHT22;2497;47.410;9.740;2023-08-31T09:07:03;15.30;99.90
4964;DHT22;2497;47.410;9.740;2023-08-31T09:09:30;15.40;99.90
4964;DHT22;2497;47.410;9.740;2023-08-31T09:12:06;15.50;99.90
4964;DHT22;2497;47.410;9.740;2023-08-31T09:14:34;15.50;99.90
4964;DHT22;2497;47.410;9.740;2023-08-31T09:17:01;15.50;99.90
4964;DHT22;2497;47.410;9.740;2023-08-31T09:19:29;15.60;99.90
4964;DHT22;2497;47.410;9.740;2023-08-31T09:21:57;15.60;99.90
4964;DHT22;2497;47.410;9.740;2023-08-31T09:24:25;15.60;99.90
4964;DHT22;2497;47.410;9.740;2023-08-31T09:26:53;15.60;99.90
4964;DHT22;2497;47.410;9.740;2023-08-31T09:29:20;15.60;99.90
4964;DHT22;2497;47.410;9.740;2023-08-31T09:31:48;15.60;99.90
4964;DHT22;2497;47.410;9.740;2023-08-31T09:34:15;15.70;99.90
4964;DHT22;2497;47.410;9.740;2023-08-31T09:36:43;15.70;99.90
4964;DHT22;2497;47.410;9.740;2023-08-31T09:39:13;15.70;99.90
4964;DHT22;2497;47.410;9.740;2023-08-31T09:41:53;15.70;99.90
4964;DHT22;2497;47.410;9.740;2023-08-31T09:44:21;15.80;99.90
4964;DHT22;2497;47.410;9.740;2023-08-31T09:46:48;15.90;99.90
4964;DHT22;2497;47.410;9.740;2023-08-31T09:49:17;16.00;99.90
4964;DHT22;2497;47.410;9.740;2023-08-31T09:51:48;16.00;99.90
4964;DHT22;2497;47.410;9.740;2023-08-31T09:54:18;16.00;99.90
4964;DHT22;2497;47.410;9.740;2023-08-31T09:56:46;16.20;99.90
4964;DHT22;2497;47.410;9.740;2023-08-31T09:59:14;16.50;99.90
4964;DHT22;2497;47.410;9.740;2023-08-31T10:01:43;16.70;99.90
4964;DHT22;2497;47.410;9.740;2023-08-31T10:04:11;17.00;99.90
4964;DHT22;2497;47.410;9.740;2023-08-31T10:06:39;17.90;99.90
4964;DHT22;2497;47.410;9.740;2023-08-31T10:09:06;18.50;99.90
4964;DHT22;2497;47.410;9.740;2023-08-31T10:11:37;18.80;99.90
4964;DHT22;2497;47.410;9.740;2023-08-31T10:14:05;19.20;99.90
4964;DHT22;2497;47.410;9.740;2023-08-31T10:16:32;19.20;99.90
4964;DHT22;2497;47.410;9.740;2023-08-31T10:18:59;18.80;99.90
4964;DHT22;2497;47.410;9.740;2023-08-31T10:21:26;18.60;99.90
4964;DHT22;2497;47.410;9.740;2023-08-31T10:23:54;18.30;99.90
4964;DHT22;2497;47.410;9.740;2023-08-31T10:26:24;18.30;99.90
4964;DHT22;2497;47.410;9.740;2023-08-31T10:28:53;18.30;99.90
4964;DHT22;2497;47.410;9.740;2023-08-31T10:31:21;18.20;99.90
4964;DHT22;2497;47.410;9.740;2023-08-31T10:33:55;18.20;99.90
4964;DHT22;2497;47.410;9.740;2023-08-31T10:36:35;18.30;99.90
4964;DHT22;2497;47.410;9.740;2023-08-31T10:39:06;18.40;99.90
4964;DHT22;2497;47.410;9.740;2023-08-31T10:41:37;18.40;99.90
4964;DHT22;2497;47.410;9.740;2023-08-31T10:44:18;18.30;99.90
4964;DHT22;2497;47.410;9.740;2023-08-31T10:46:46;18.50;99.90
4964;DHT22;2497;47.410;9.740;2023-08-31T10:49:14;18.20;99.90
4964;DHT22;2497;47.410;9.740;2023-08-31T10:51:44;18.00;99.90
4964;DHT22;2497;47.410;9.740;2023-08-31T10:54:13;18.00;99.90
4964;DHT22;2497;47.410;9.740;2023-08-31T10:57:06;18.00;99.90
4964;DHT22;2497;47.410;9.740;2023-08-31T10:59:45;17.80;99.90
4964;DHT22;2497;47.410;9.740;2023-08-31T11:02:34;17.70;99.90
4964;DHT22;2497;47.410;9.740;2023-08-31T11:05:05;17.60;99.90
4964;DHT22;2497;47.410;9.740;2023-08-31T11:07:32;17.70;99.90
4964;DHT22;2497;47.410;9.740;2023-08-31T11:10:13;17.80;99.90
4964;DHT22;2497;47.410;9.740;2023-08-31T11:12:41;18.00;99.90
4964;DHT22;2497;47.410;9.740;2023-08-31T11:15:11;18.00;99.90
4964;DHT22;2497;47.410;9.740;2023-08-31T11:17:40;17.90;99.90
4964;DHT22;2497;47.410;9.740;2023-08-31T11:20:08;17.80;99.90
4964;DHT22;2497;47.410;9.740;2023-08-31T11:22:38;17.90;99.90
4964;DHT22;2497;47.410;9.740;2023-08-31T11:25:07;17.70;99.90
4964;DHT22;2497;47.410;9.740;2023-08-31T11:27:35;17.90;99.90
4964;DHT22;2497;47.410;9.740;2023-08-31T11:30:03;18.10;99.90
4964;DHT22;2497;47.410;9.740;2023-08-31T11:32:32;18.40;99.90
4964;DHT22;2497;47.410;9.740;2023-08-31T11:34:59;18.60;99.90
4964;DHT22;2497;47.410;9.740;2023-08-31T11:37:27;18.80;99.90
4964;DHT22;2497;47.410;9.740;2023-08-31T11:39:54;18.80;99.90
4964;DHT22;2497;47.410;9.740;2023-08-31T11:42:21;18.70;99.90
4964;DHT22;2497;47.410;9.740;2023-08-31T11:44:50;18.90;99.90
4964;DHT22;2497;47.410;9.740;2023-08-31T11:47:18;18.90;99.90
4964;DHT22;2497;47.410;9.740;2023-08-31T11:49:48;18.90;99.90
4964;DHT22;2497;47.410;9.740;2023-08-31T11:52:16;18.60;99.90
4964;DHT22;2497;47.410;9.740;2023-08-31T11:54:43;18.70;99.90
4964;DHT22;2497;47.410;9.740;2023-08-31T11:57:11;18.60;99.90
4964;DHT22;2497;47.410;9.740;2023-08-31T11:59:41;18.70;99.90
4964;DHT22;2497;47.410;9.740;2023-08-31T12:02:09;18.50;99.90
4964;DHT22;2497;47.410;9.740;2023-08-31T12:04:43;18.40;99.90
4964;DHT22;2497;47.410;9.740;2023-08-31T12:07:15;18.50;99.90
4964;DHT22;2497;47.410;9.740;2023-08-31T12:09:43;18.50;99.90
4964;DHT22;2497;47.410;9.740;2023-08-31T12:12:10;18.60;99.90
4964;DHT22;2497;47.410;9.740;2023-08-31T12:14:37;18.60;99.90
4964;DHT22;2497;47.410;9.740;2023-08-31T12:17:07;18.70;99.90
4964;DHT22;2497;47.410;9.740;2023-08-31T12:19:37;18.80;99.90
4964;DHT22;2497;47.410;9.740;2023-08-31T12:22:04;18.90;99.90
4964;DHT22;2497;47.410;9.740;2023-08-31T12:24:39;19.00;99.90
4964;DHT22;2497;47.410;9.740;2023-08-31T12:27:07;19.00;99.90
4964;DHT22;2497;47.410;9.740;2023-08-31T12:29:34;18.60;99.90
4964;DHT22;2497;47.410;9.740;2023-08-31T12:32:02;18.70;99.90
4964;DHT22;2497;47.410;9.740;2023-08-31T12:34:29;18.80;99.90
4964;DHT22;2497;47.410;9.740;2023-08-31T12:36:56;19.00;99.90
4964;DHT22;2497;47.410;9.740;2023-08-31T12:39:27;19.00;99.90
4964;DHT22;2497;47.410;9.740;2023-08-31T12:41:56;18.90;99.90
4964;DHT22;2497;47.410;9.740;2023-08-31T12:44:23;19.00;99.90
4964;DHT22;2497;47.410;9.740;2023-08-31T12:46:51;19.20;99.90
4964;DHT22;2497;47.410;9.740;2023-08-31T12:49:18;19.40;99.90
4964;DHT22;2497;47.410;9.740;2023-08-31T12:51:47;19.30;99.90
4964;DHT22;2497;47.410;9.740;2023-08-31T12:54:16;19.30;99.90
4964;DHT22;2497;47.410;9.740;2023-08-31T12:56:43;19.20;99.90
4964;DHT22;2497;47.410;9.740;2023-08-31T12:59:11;19.30;99.90
4964;DHT22;2497;47.410;9.740;2023-08-31T13:01:39;19.40;99.90
4964;DHT22;2497;47.410;9.740;2023-08-31T13:04:06;19.60;99.90
4964;DHT22;2497;47.410;9.740;2023-08-31T13:06:34;19.60;99.90
4964;DHT22;2497;47.410;9.740;2023-08-31T13:09:05;19.60;99.90
4964;DHT22;2497;47.410;9.740;2023-08-31T13:11:34;19.70;99.90
4964;DHT22;2497;47.410;9.740;2023-08-31T13:14:01;19.60;99.90
4964;DHT22;2497;47.410;9.740;2023-08-31T13:16:29;19.50;99.90
4964;DHT22;2497;47.410;9.740;2023-08-31T13:18:57;19.40;99.90
4964;DHT22;2497;47.410;9.740;2023-08-31T13:21:25;19.30;99.90
4964;DHT22;2497;47.410;9.740;2023-08-31T13:23:52;19.30;99.90
4964;DHT22;2497;47.410;9.740;2023-08-31T13:26:19;19.30;99.90
4964;DHT22;2497;47.410;9.740;2023-08-31T13:28:46;18.90;99.90
4964;DHT22;2497;47.410;9.740;2023-08-31T13:31:13;18.90;99.90
4964;DHT22;2497;47.410;9.740;2023-08-31T13:33:41;19.00;99.90
4964;DHT22;2497;47.410;9.740;2023-08-31T13:36:09;19.00;99.90
4964;DHT22;2497;47.410;9.740;2023-08-31T13:38:37;19.00;99.90
4964;DHT22;2497;47.410;9.740;2023-08-31T13:41:04;19.00;99.90
4964;DHT22;2497;47.410;9.740;2023-08-31T13:43:32;19.10;99.90
4964;DHT22;2497;47.410;9.740;2023-08-31T13:46:00;19.10;99.90
4964;DHT22;2497;47.410;9.740;2023-08-31T13:48:27;19.10;99.90
4964;DHT22;2497;47.410;9.740;2023-08-31T13:50:56;19.10;99.90
4964;DHT22;2497;47.410;9.740;2023-08-31T13:53:23;19.00;99.90
4964;DHT22;2497;47.410;9.740;2023-08-31T13:55:50;18.90;99.90
4964;DHT22;2497;47.410;9.740;2023-08-31T13:58:17;18.80;99.90
4964;DHT22;2497;47.410;9.740;2023-08-31T14:00:45;18.70;99.90
4964;DHT22;2497;47.410;9.740;2023-08-31T14:03:12;18.80;99.90
4964;DHT22;2497;47.410;9.740;2023-08-31T14:05:39;18.90;99.90
4964;DHT22;2497;47.410;9.740;2023-08-31T14:08:08;18.80;99.90
4964;DHT22;2497;47.410;9.740;2023-08-31T14:10:39;18.70;99.90
4964;DHT22;2497;47.410;9.740;2023-08-31T14:13:06;18.80;99.90
4964;DHT22;2497;47.410;9.740;2023-08-31T14:15:34;18.80;99.90
4964;DHT22;2497;47.410;9.740;2023-08-31T14:18:02;18.70;99.90
4964;DHT22;2497;47.410;9.740;2023-08-31T14:20:30;18.70;99.90
4964;DHT22;2497;47.410;9.740;2023-08-31T14:22:58;18.80;99.90
4964;DHT22;2497;47.410;9.740;2023-08-31T14:25:27;18.80;99.90
4964;DHT22;2497;47.410;9.740;2023-08-31T14:27:54;18.80;99.90
4964;DHT22;2497;47.410;9.740;2023-08-31T14:30:22;18.70;99.90
4964;DHT22;2497;47.410;9.740;2023-08-31T14:32:50;18.70;99.90
4964;DHT22;2497;47.410;9.740;2023-08-31T14:35:19;18.70;99.90
4964;DHT22;2497;47.410;9.740;2023-08-31T14:37:47;18.50;99.90
4964;DHT22;2497;47.410;9.740;2023-08-31T14:40:16;18.40;99.90
4964;DHT22;2497;47.410;9.740;2023-08-31T14:42:51;18.50;99.90
4964;DHT22;2497;47.410;9.740;2023-08-31T14:45:19;18.30;99.90
4964;DHT22;2497;47.410;9.740;2023-08-31T14:47:51;18.20;99.90
4964;DHT22;2497;47.410;9.740;2023-08-31T14:50:22;18.30;99.90
4964;DHT22;2497;47.410;9.740;2023-08-31T14:52:51;18.20;99.90
4964;DHT22;2497;47.410;9.740;2023-08-31T14:55:19;18.20;99.90
4964;DHT22;2497;47.410;9.740;2023-08-31T14:57:50;18.00;99.90
4964;DHT22;2497;47.410;9.740;2023-08-31T15:00:19;17.90;99.90
4964;DHT22;2497;47.410;9.740;2023-08-31T15:02:47;17.90;99.90
4964;DHT22;2497;47.410;9.740;2023-08-31T15:05:16;17.80;99.90
4964;DHT22;2497;47.410;9.740;2023-08-31T15:07:47;17.90;99.90
4964;DHT22;2497;47.410;9.740;2023-08-31T15:10:16;17.80;99.90
4964;DHT22;2497;47.410;9.740;2023-08-31T15:12:45;17.80;99.90
4964;DHT22;2497;47.410;9.740;2023-08-31T15:15:15;17.90;99.90
4964;DHT22;2497;47.410;9.740;2023-08-31T15:17:44;18.00;99.90
4964;DHT22;2497;47.410;9.740;2023-08-31T15:20:13;18.00;99.90
4964;DHT22;2497;47.410;9.740;2023-08-31T15:22:42;17.90;99.90
4964;DHT22;2497;47.410;9.740;2023-08-31T15:25:10;17.80;99.90
4964;DHT22;2497;47.410;9.740;2023-08-31T15:27:39;17.90;99.90
4964;DHT22;2497;47.410;9.740;2023-08-31T15:30:09;17.80;99.90
4964;DHT22;2497;47.410;9.740;2023-08-31T15:32:39;17.90;99.90
4964;DHT22;2497;47.410;9.740;2023-08-31T15:35:08;17.90;99.90
4964;DHT22;2497;47.410;9.740;2023-08-31T15:37:40;17.80;99.90
4964;DHT22;2497;47.410;9.740;2023-08-31T15:40:10;17.90;99.90
4964;DHT22;2497;47.410;9.740;2023-08-31T15:42:39;17.80;99.90
4964;DHT22;2497;47.410;9.740;2023-08-31T15:45:08;17.90;99.90
4964;DHT22;2497;47.410;9.740;2023-08-31T15:47:38;17.80;99.90
4964;DHT22;2497;47.410;9.740;2023-08-31T15:50:08;17.80;99.90
4964;DHT22;2497;47.410;9.740;2023-08-31T15:52:37;17.80;99.90
4964;DHT22;2497;47.410;9.740;2023-08-31T15:55:09;17.60;99.90
4964;DHT22;2497;47.410;9.740;2023-08-31T15:57:41;17.70;99.90
4964;DHT22;2497;47.410;9.740;2023-08-31T16:00:10;17.60;99.90
4964;DHT22;2497;47.410;9.740;2023-08-31T16:02:41;17.70;99.90
4964;DHT22;2497;47.410;9.740;2023-08-31T16:05:11;17.60;99.90
4964;DHT22;2497;47.410;9.740;2023-08-31T16:07:40;17.50;99.90
4964;DHT22;2497;47.410;9.740;2023-08-31T16:10:09;17.60;99.90